sensor_id;sensor_type;location;lat;lon;timestamp;P1;durP1;ratioP1;P2;durP2;ratioP2
19780;SDS011;10050;55.492;13.506;2023-08-06T00:02:23;3.07;;;2.77;;
19780;SDS011;10050;55.492;13.506;2023-08-06T00:04:49;3.13;;;2.43;;
19780;SDS011;10050;55.492;13.506;2023-08-06T00:07:15;2.60;;;2.40;;
19780;SDS011;10050;55.492;13.506;2023-08-06T00:09:40;2.87;;;2.67;;
19780;SDS011;10050;55.492;13.506;2023-08-06T00:12:06;2.27;;;1.90;;
19780;SDS011;10050;55.492;13.506;2023-08-06T00:14:34;4.73;;;2.70;;
19780;SDS011;10050;55.492;13.506;2023-08-06T00:17:00;2.83;;;2.10;;
19780;SDS011;10050;55.492;13.506;2023-08-06T00:19:26;4.33;;;2.60;;
19780;SDS011;10050;55.492;13.506;2023-08-06T00:21:51;3.17;;;2.97;;
19780;SDS011;10050;55.492;13.506;2023-08-06T00:24:17;4.10;;;3.73;;
19780;SDS011;10050;55.492;13.506;2023-08-06T00:26:42;5.73;;;5.23;;
19780;SDS011;10050;55.492;13.506;2023-08-06T00:29:08;8.67;;;7.90;;
19780;SDS011;10050;55.492;13.506;2023-08-06T00:31:36;9.20;;;8.40;;
19780;SDS011;10050;55.492;13.506;2023-08-06T00:34:02;6.10;;;5.50;;
19780;SDS011;10050;55.492;13.506;2023-08-06T00:36:28;5.30;;;4.57;;
19780;SDS011;10050;55.492;13.506;2023-08-06T00:38:53;3.63;;;3.33;;
19780;SDS011;10050;55.492;13.506;2023-08-06T00:41:20;3.67;;;3.37;;
19780;SDS011;10050;55.492;13.506;2023-08-06T00:43:46;4.23;;;3.73;;
19780;SDS011;10050;55.492;13.506;2023-08-06T00:46:12;6.30;;;5.70;;
19780;SDS011;10050;55.492;13.506;2023-08-06T00:48:38;9.10;;;8.20;;
19780;SDS011;10050;55.492;13.506;2023-08-06T00:51:04;12.37;;;11.10;;
19780;SDS011;10050;55.492;13.506;2023-08-06T00:53:30;12.83;;;10.23;;
19780;SDS011;10050;55.492;13.506;2023-08-06T00:55:56;9.80;;;8.40;;
19780;SDS011;10050;55.492;13.506;2023-08-06T00:58:23;8.57;;;6.37;;
19780;SDS011;10050;55.492;13.506;2023-08-06T01:00:49;6.10;;;5.03;;
19780;SDS011;10050;55.492;13.506;2023-08-06T01:03:14;6.00;;;5.40;;
19780;SDS011;10050;55.492;13.506;2023-08-06T01:05:40;9.30;;;6.10;;
19780;SDS011;10050;55.492;13.506;2023-08-06T01:14:16;8.40;;;5.87;;
19780;SDS011;10050;55.492;13.506;2023-08-06T01:16:49;6.10;;;5.50;;
19780;SDS011;10050;55.492;13.506;2023-08-06T01:19:19;4.20;;;3.80;;
19780;SDS011;10050;55.492;13.506;2023-08-06T01:21:45;3.77;;;3.47;;
19780;SDS011;10050;55.492;13.506;2023-08-06T01:24:11;4.07;;;2.67;;
19780;SDS011;10050;55.492;13.506;2023-08-06T01:29:14;3.90;;;3.00;;
19780;SDS011;10050;55.492;13.506;2023-08-06T01:31:44;3.40;;;3.10;;
19780;SDS011;10050;55.492;13.506;2023-08-06T01:34:32;5.10;;;3.73;;
19780;SDS011;10050;55.492;13.506;2023-08-06T01:36:59;6.13;;;5.53;;
19780;SDS011;10050;55.492;13.506;2023-08-06T01:39:26;5.20;;;4.60;;
19780;SDS011;10050;55.492;13.506;2023-08-06T01:41:52;4.07;;;3.50;;
19780;SDS011;10050;55.492;13.506;2023-08-06T01:44:17;4.80;;;4.40;;
19780;SDS011;10050;55.492;13.506;2023-08-06T01:46:43;6.73;;;5.83;;
19780;SDS011;10050;55.492;13.506;2023-08-06T01:49:09;6.17;;;4.47;;
19780;SDS011;10050;55.492;13.506;2023-08-06T01:51:34;5.97;;;5.47;;
19780;SDS011;10050;55.492;13.506;2023-08-06T01:54:00;4.97;;;4.47;;
19780;SDS011;10050;55.492;13.506;2023-08-06T01:56:26;5.00;;;4.60;;
19780;SDS011;10050;55.492;13.506;2023-08-06T01:58:51;5.50;;;4.97;;
19780;SDS011;10050;55.492;13.506;2023-08-06T02:01:17;5.23;;;4.37;;
19780;SDS011;10050;55.492;13.506;2023-08-06T02:03:42;5.60;;;4.80;;
19780;SDS011;10050;55.492;13.506;2023-08-06T02:06:08;4.70;;;4.30;;
19780;SDS011;10050;55.492;13.506;2023-08-06T02:08:34;4.73;;;4.33;;
19780;SDS011;10050;55.492;13.506;2023-08-06T02:10:59;4.47;;;4.03;;
19780;SDS011;10050;55.492;13.506;2023-08-06T02:13:25;5.10;;;4.03;;
19780;SDS011;10050;55.492;13.506;2023-08-06T02:15:51;6.67;;;4.20;;
19780;SDS011;10050;55.492;13.506;2023-08-06T02:18:17;4.40;;;3.73;;
19780;SDS011;10050;55.492;13.506;2023-08-06T02:20:42;5.27;;;4.50;;
19780;SDS011;10050;55.492;13.506;2023-08-06T02:23:08;5.90;;;4.50;;
19780;SDS011;10050;55.492;13.506;2023-08-06T02:25:34;4.50;;;4.10;;
19780;SDS011;10050;55.492;13.506;2023-08-06T02:28:00;4.20;;;3.90;;
19780;SDS011;10050;55.492;13.506;2023-08-06T02:30:25;3.53;;;3.23;;
19780;SDS011;10050;55.492;13.506;2023-08-06T02:32:51;4.30;;;3.90;;
19780;SDS011;10050;55.492;13.506;2023-08-06T02:35:17;3.73;;;3.43;;
19780;SDS011;10050;55.492;13.506;2023-08-06T02:37:47;3.67;;;3.37;;
19780;SDS011;10050;55.492;13.506;2023-08-06T02:40:14;4.17;;;3.43;;
19780;SDS011;10050;55.492;13.506;2023-08-06T02:42:40;6.43;;;3.37;;
19780;SDS011;10050;55.492;13.506;2023-08-06T02:45:05;5.37;;;2.97;;
19780;SDS011;10050;55.492;13.506;2023-08-06T02:47:32;5.83;;;3.27;;
19780;SDS011;10050;55.492;13.506;2023-08-06T02:49:57;4.23;;;3.77;;
19780;SDS011;10050;55.492;13.506;2023-08-06T02:52:23;3.47;;;3.17;;
19780;SDS011;10050;55.492;13.506;2023-08-06T02:54:48;3.77;;;3.43;;
19780;SDS011;10050;55.492;13.506;2023-08-06T02:57:14;3.90;;;3.50;;
19780;SDS011;10050;55.492;13.506;2023-08-06T02:59:40;4.07;;;3.67;;
19780;SDS011;10050;55.492;13.506;2023-08-06T03:02:07;4.13;;;3.13;;
19780;SDS011;10050;55.492;13.506;2023-08-06T03:04:32;3.93;;;3.03;;
19780;SDS011;10050;55.492;13.506;2023-08-06T03:06:58;3.60;;;2.73;;
19780;SDS011;10050;55.492;13.506;2023-08-06T03:09:24;3.43;;;3.13;;
19780;SDS011;10050;55.492;13.506;2023-08-06T03:11:49;3.20;;;2.97;;
19780;SDS011;10050;55.492;13.506;2023-08-06T03:14:15;5.60;;;2.93;;
19780;SDS011;10050;55.492;13.506;2023-08-06T03:16:43;3.50;;;3.03;;
19780;SDS011;10050;55.492;13.506;2023-08-06T03:19:09;3.17;;;2.87;;
19780;SDS011;10050;55.492;13.506;2023-08-06T03:21:35;3.00;;;2.70;;
19780;SDS011;10050;55.492;13.506;2023-08-06T03:24:00;4.20;;;3.50;;
19780;SDS011;10050;55.492;13.506;2023-08-06T03:26:26;4.47;;;3.53;;
19780;SDS011;10050;55.492;13.506;2023-08-06T03:28:51;4.40;;;3.60;;
19780;SDS011;10050;55.492;13.506;2023-08-06T03:31:17;3.40;;;3.10;;
19780;SDS011;10050;55.492;13.506;2023-08-06T03:33:42;4.50;;;3.40;;
19780;SDS011;10050;55.492;13.506;2023-08-06T03:36:08;3.37;;;3.07;;
19780;SDS011;10050;55.492;13.506;2023-08-06T03:38:34;4.63;;;3.43;;
19780;SDS011;10050;55.492;13.506;2023-08-06T03:40:59;3.50;;;3.20;;
19780;SDS011;10050;55.492;13.506;2023-08-06T03:43:25;4.23;;;3.33;;
19780;SDS011;10050;55.492;13.506;2023-08-06T03:45:50;3.63;;;2.70;;
19780;SDS011;10050;55.492;13.506;2023-08-06T03:48:16;4.10;;;2.73;;
19780;SDS011;10050;55.492;13.506;2023-08-06T03:50:42;5.00;;;3.30;;
19780;SDS011;10050;55.492;13.506;2023-08-06T03:53:07;3.20;;;2.57;;
19780;SDS011;10050;55.492;13.506;2023-08-06T03:55:33;3.73;;;3.03;;
19780;SDS011;10050;55.492;13.506;2023-08-06T03:57:59;3.70;;;2.90;;
19780;SDS011;10050;55.492;13.506;2023-08-06T04:00:24;4.07;;;3.03;;
19780;SDS011;10050;55.492;13.506;2023-08-06T04:02:50;2.77;;;2.57;;
19780;SDS011;10050;55.492;13.506;2023-08-06T04:05:16;3.27;;;3.07;;
19780;SDS011;10050;55.492;13.506;2023-08-06T04:07:42;2.97;;;2.63;;
19780;SDS011;10050;55.492;13.506;2023-08-06T04:10:08;3.27;;;2.97;;
19780;SDS011;10050;55.492;13.506;2023-08-06T04:12:34;4.70;;;3.00;;
19780;SDS011;10050;55.492;13.506;2023-08-06T04:15:01;3.70;;;3.23;;
19780;SDS011;10050;55.492;13.506;2023-08-06T04:17:28;3.80;;;3.00;;
19780;SDS011;10050;55.492;13.506;2023-08-06T04:19:54;4.57;;;3.30;;
19780;SDS011;10050;55.492;13.506;2023-08-06T04:22:23;5.77;;;3.17;;
19780;SDS011;10050;55.492;13.506;2023-08-06T04:24:49;4.87;;;3.17;;
19780;SDS011;10050;55.492;13.506;2023-08-06T04:27:15;3.03;;;2.73;;
19780;SDS011;10050;55.492;13.506;2023-08-06T04:29:42;4.23;;;2.80;;
19780;SDS011;10050;55.492;13.506;2023-08-06T04:32:08;2.23;;;2.13;;
19780;SDS011;10050;55.492;13.506;2023-08-06T04:34:35;3.03;;;2.67;;
19780;SDS011;10050;55.492;13.506;2023-08-06T04:37:01;2.63;;;2.43;;
19780;SDS011;10050;55.492;13.506;2023-08-06T04:39:27;2.40;;;2.00;;
19780;SDS011;10050;55.492;13.506;2023-08-06T04:41:54;4.67;;;2.83;;
19780;SDS011;10050;55.492;13.506;2023-08-06T04:44:21;3.13;;;2.87;;
19780;SDS011;10050;55.492;13.506;2023-08-06T04:46:47;4.13;;;3.07;;
19780;SDS011;10050;55.492;13.506;2023-08-06T04:49:12;2.80;;;2.60;;
19780;SDS011;10050;55.492;13.506;2023-08-06T04:51:38;5.17;;;2.93;;
19780;SDS011;10050;55.492;13.506;2023-08-06T04:54:04;3.47;;;2.50;;
19780;SDS011;10050;55.492;13.506;2023-08-06T04:56:29;3.57;;;3.27;;
19780;SDS011;10050;55.492;13.506;2023-08-06T04:58:55;3.93;;;3.13;;
19780;SDS011;10050;55.492;13.506;2023-08-06T05:01:20;4.07;;;2.77;;
19780;SDS011;10050;55.492;13.506;2023-08-06T05:03:47;4.10;;;2.77;;
19780;SDS011;10050;55.492;13.506;2023-08-06T05:06:12;4.30;;;2.70;;
19780;SDS011;10050;55.492;13.506;2023-08-06T05:08:38;3.80;;;2.63;;
19780;SDS011;10050;55.492;13.506;2023-08-06T05:11:04;2.83;;;2.50;;
19780;SDS011;10050;55.492;13.506;2023-08-06T05:13:29;4.53;;;2.60;;
19780;SDS011;10050;55.492;13.506;2023-08-06T05:15:55;2.93;;;2.37;;
19780;SDS011;10050;55.492;13.506;2023-08-06T05:18:21;5.03;;;2.97;;
19780;SDS011;10050;55.492;13.506;2023-08-06T05:20:47;2.60;;;2.40;;
19780;SDS011;10050;55.492;13.506;2023-08-06T05:23:13;4.10;;;2.77;;
19780;SDS011;10050;55.492;13.506;2023-08-06T05:25:38;3.60;;;2.60;;
19780;SDS011;10050;55.492;13.506;2023-08-06T05:28:04;3.87;;;2.80;;
19780;SDS011;10050;55.492;13.506;2023-08-06T05:30:30;3.63;;;2.90;;
19780;SDS011;10050;55.492;13.506;2023-08-06T05:32:55;2.87;;;2.23;;
19780;SDS011;10050;55.492;13.506;2023-08-06T05:35:21;2.57;;;2.40;;
19780;SDS011;10050;55.492;13.506;2023-08-06T05:37:47;3.77;;;2.63;;
19780;SDS011;10050;55.492;13.506;2023-08-06T05:40:14;3.20;;;2.87;;
19780;SDS011;10050;55.492;13.506;2023-08-06T05:42:40;4.27;;;3.97;;
19780;SDS011;10050;55.492;13.506;2023-08-06T05:45:06;3.37;;;2.60;;
19780;SDS011;10050;55.492;13.506;2023-08-06T05:47:32;4.00;;;3.10;;
19780;SDS011;10050;55.492;13.506;2023-08-06T05:49:58;3.00;;;2.53;;
19780;SDS011;10050;55.492;13.506;2023-08-06T05:52:23;2.73;;;2.47;;
19780;SDS011;10050;55.492;13.506;2023-08-06T05:54:49;2.97;;;2.40;;
19780;SDS011;10050;55.492;13.506;2023-08-06T05:57:15;3.00;;;2.70;;
19780;SDS011;10050;55.492;13.506;2023-08-06T05:59:41;4.83;;;2.77;;
19780;SDS011;10050;55.492;13.506;2023-08-06T06:02:07;3.40;;;2.67;;
19780;SDS011;10050;55.492;13.506;2023-08-06T06:04:33;4.63;;;2.83;;
19780;SDS011;10050;55.492;13.506;2023-08-06T06:06:58;3.80;;;2.60;;
19780;SDS011;10050;55.492;13.506;2023-08-06T06:09:24;3.03;;;2.83;;
19780;SDS011;10050;55.492;13.506;2023-08-06T06:11:50;4.50;;;2.50;;
19780;SDS011;10050;55.492;13.506;2023-08-06T06:14:18;3.70;;;3.13;;
19780;SDS011;10050;55.492;13.506;2023-08-06T06:16:44;4.67;;;2.70;;
19780;SDS011;10050;55.492;13.506;2023-08-06T06:19:11;2.83;;;2.60;;
19780;SDS011;10050;55.492;13.506;2023-08-06T06:21:37;3.00;;;2.70;;
19780;SDS011;10050;55.492;13.506;2023-08-06T06:24:04;2.77;;;2.20;;
19780;SDS011;10050;55.492;13.506;2023-08-06T06:26:30;2.67;;;2.40;;
19780;SDS011;10050;55.492;13.506;2023-08-06T06:28:56;4.23;;;2.20;;
19780;SDS011;10050;55.492;13.506;2023-08-06T06:31:23;5.13;;;2.73;;
19780;SDS011;10050;55.492;13.506;2023-08-06T06:33:48;2.47;;;2.27;;
19780;SDS011;10050;55.492;13.506;2023-08-06T06:36:14;4.03;;;2.70;;
19780;SDS011;10050;55.492;13.506;2023-08-06T06:38:39;4.40;;;1.90;;
19780;SDS011;10050;55.492;13.506;2023-08-06T06:41:05;5.03;;;2.37;;
19780;SDS011;10050;55.492;13.506;2023-08-06T06:43:32;2.33;;;2.13;;
19780;SDS011;10050;55.492;13.506;2023-08-06T06:45:58;2.33;;;2.13;;
19780;SDS011;10050;55.492;13.506;2023-08-06T06:48:28;3.60;;;2.47;;
19780;SDS011;10050;55.492;13.506;2023-08-06T06:50:57;1.97;;;1.83;;
19780;SDS011;10050;55.492;13.506;2023-08-06T06:53:23;2.43;;;2.20;;
19780;SDS011;10050;55.492;13.506;2023-08-06T06:55:55;3.23;;;1.90;;
19780;SDS011;10050;55.492;13.506;2023-08-06T06:58:26;3.67;;;2.10;;
19780;SDS011;10050;55.492;13.506;2023-08-06T07:00:51;1.97;;;1.87;;
19780;SDS011;10050;55.492;13.506;2023-08-06T07:03:17;3.43;;;2.43;;
19780;SDS011;10050;55.492;13.506;2023-08-06T07:05:44;2.27;;;2.17;;
19780;SDS011;10050;55.492;13.506;2023-08-06T07:08:10;2.60;;;2.33;;
19780;SDS011;10050;55.492;13.506;2023-08-06T07:10:36;2.60;;;2.00;;
19780;SDS011;10050;55.492;13.506;2023-08-06T07:13:02;4.00;;;2.50;;
19780;SDS011;10050;55.492;13.506;2023-08-06T07:15:27;2.63;;;2.43;;
19780;SDS011;10050;55.492;13.506;2023-08-06T07:17:53;2.93;;;2.40;;
19780;SDS011;10050;55.492;13.506;2023-08-06T07:20:19;5.33;;;2.00;;
19780;SDS011;10050;55.492;13.506;2023-08-06T07:22:45;3.43;;;2.57;;
19780;SDS011;10050;55.492;13.506;2023-08-06T07:25:10;2.47;;;2.13;;
19780;SDS011;10050;55.492;13.506;2023-08-06T07:27:36;3.87;;;2.13;;
19780;SDS011;10050;55.492;13.506;2023-08-06T07:30:02;3.03;;;2.33;;
19780;SDS011;10050;55.492;13.506;2023-08-06T07:32:28;2.90;;;2.00;;
19780;SDS011;10050;55.492;13.506;2023-08-06T07:34:53;3.10;;;2.07;;
19780;SDS011;10050;55.492;13.506;2023-08-06T07:37:24;3.97;;;2.40;;
19780;SDS011;10050;55.492;13.506;2023-08-06T07:39:50;4.57;;;2.50;;
19780;SDS011;10050;55.492;13.506;2023-08-06T07:42:15;3.53;;;2.23;;
19780;SDS011;10050;55.492;13.506;2023-08-06T07:44:41;3.03;;;2.47;;
19780;SDS011;10050;55.492;13.506;2023-08-06T07:47:07;4.00;;;3.10;;
19780;SDS011;10050;55.492;13.506;2023-08-06T07:49:32;3.20;;;2.43;;
19780;SDS011;10050;55.492;13.506;2023-08-06T07:51:58;4.17;;;2.67;;
19780;SDS011;10050;55.492;13.506;2023-08-06T07:54:23;3.20;;;2.40;;
19780;SDS011;10050;55.492;13.506;2023-08-06T07:56:49;3.90;;;2.50;;
19780;SDS011;10050;55.492;13.506;2023-08-06T07:59:15;3.60;;;2.60;;
19780;SDS011;10050;55.492;13.506;2023-08-06T08:01:41;4.63;;;2.50;;
19780;SDS011;10050;55.492;13.506;2023-08-06T08:04:07;3.60;;;2.50;;
19780;SDS011;10050;55.492;13.506;2023-08-06T08:06:33;4.07;;;2.57;;
19780;SDS011;10050;55.492;13.506;2023-08-06T08:08:58;3.03;;;2.47;;
19780;SDS011;10050;55.492;13.506;2023-08-06T08:11:25;3.43;;;2.60;;
19780;SDS011;10050;55.492;13.506;2023-08-06T08:13:51;2.50;;;2.23;;
19780;SDS011;10050;55.492;13.506;2023-08-06T08:16:16;6.17;;;2.87;;
19780;SDS011;10050;55.492;13.506;2023-08-06T08:18:42;2.97;;;2.57;;
19780;SDS011;10050;55.492;13.506;2023-08-06T08:21:07;2.90;;;2.47;;
19780;SDS011;10050;55.492;13.506;2023-08-06T08:23:33;3.43;;;2.57;;
19780;SDS011;10050;55.492;13.506;2023-08-06T08:25:59;2.60;;;2.40;;
19780;SDS011;10050;55.492;13.506;2023-08-06T08:28:27;2.60;;;2.20;;
19780;SDS011;10050;55.492;13.506;2023-08-06T08:30:52;2.97;;;2.60;;
19780;SDS011;10050;55.492;13.506;2023-08-06T08:33:18;3.27;;;2.97;;
19780;SDS011;10050;55.492;13.506;2023-08-06T08:35:45;3.23;;;3.03;;
19780;SDS011;10050;55.492;13.506;2023-08-06T08:38:11;3.00;;;2.67;;
19780;SDS011;10050;55.492;13.506;2023-08-06T08:40:38;4.50;;;2.67;;
19780;SDS011;10050;55.492;13.506;2023-08-06T08:43:10;3.07;;;2.33;;
19780;SDS011;10050;55.492;13.506;2023-08-06T08:45:38;2.20;;;2.10;;
19780;SDS011;10050;55.492;13.506;2023-08-06T08:48:04;4.63;;;2.80;;
19780;SDS011;10050;55.492;13.506;2023-08-06T08:50:30;5.13;;;2.70;;
19780;SDS011;10050;55.492;13.506;2023-08-06T08:52:56;2.77;;;2.57;;
19780;SDS011;10050;55.492;13.506;2023-08-06T08:55:22;4.90;;;2.40;;
19780;SDS011;10050;55.492;13.506;2023-08-06T08:57:48;3.57;;;3.23;;
19780;SDS011;10050;55.492;13.506;2023-08-06T09:00:14;4.47;;;2.40;;
19780;SDS011;10050;55.492;13.506;2023-08-06T09:02:42;3.73;;;2.90;;
19780;SDS011;10050;55.492;13.506;2023-08-06T09:05:10;5.70;;;3.10;;
19780;SDS011;10050;55.492;13.506;2023-08-06T09:07:45;3.47;;;2.80;;
19780;SDS011;10050;55.492;13.506;2023-08-06T09:10:13;3.70;;;2.67;;
19780;SDS011;10050;55.492;13.506;2023-08-06T09:12:42;4.30;;;3.20;;
19780;SDS011;10050;55.492;13.506;2023-08-06T09:15:09;3.13;;;2.60;;
19780;SDS011;10050;55.492;13.506;2023-08-06T09:17:35;4.50;;;3.23;;
19780;SDS011;10050;55.492;13.506;2023-08-06T09:20:14;3.43;;;2.60;;
19780;SDS011;10050;55.492;13.506;2023-08-06T09:22:40;3.80;;;2.87;;
19780;SDS011;10050;55.492;13.506;2023-08-06T09:25:06;3.67;;;2.80;;
19780;SDS011;10050;55.492;13.506;2023-08-06T09:27:36;3.70;;;3.27;;
19780;SDS011;10050;55.492;13.506;2023-08-06T09:30:03;4.17;;;3.23;;
19780;SDS011;10050;55.492;13.506;2023-08-06T09:32:44;4.07;;;3.57;;
19780;SDS011;10050;55.492;13.506;2023-08-06T09:35:19;4.90;;;3.10;;
19780;SDS011;10050;55.492;13.506;2023-08-06T09:37:45;3.67;;;2.80;;
19780;SDS011;10050;55.492;13.506;2023-08-06T09:40:30;3.57;;;2.60;;
19780;SDS011;10050;55.492;13.506;2023-08-06T09:42:57;5.77;;;3.47;;
19780;SDS011;10050;55.492;13.506;2023-08-06T09:45:24;5.80;;;3.80;;
19780;SDS011;10050;55.492;13.506;2023-08-06T09:47:57;6.03;;;3.37;;
19780;SDS011;10050;55.492;13.506;2023-08-06T09:50:25;5.53;;;3.53;;
19780;SDS011;10050;55.492;13.506;2023-08-06T09:52:55;3.43;;;3.13;;
19780;SDS011;10050;55.492;13.506;2023-08-06T09:55:22;3.97;;;2.73;;
19780;SDS011;10050;55.492;13.506;2023-08-06T09:57:49;4.03;;;2.90;;
19780;SDS011;10050;55.492;13.506;2023-08-06T10:00:16;3.40;;;3.10;;
19780;SDS011;10050;55.492;13.506;2023-08-06T10:02:43;3.90;;;3.50;;
19780;SDS011;10050;55.492;13.506;2023-08-06T10:05:10;6.63;;;3.80;;
19780;SDS011;10050;55.492;13.506;2023-08-06T10:07:36;3.87;;;2.70;;
19780;SDS011;10050;55.492;13.506;2023-08-06T10:10:04;5.17;;;3.27;;
19780;SDS011;10050;55.492;13.506;2023-08-06T10:12:32;3.90;;;3.43;;
19780;SDS011;10050;55.492;13.506;2023-08-06T10:15:03;4.20;;;3.33;;
19780;SDS011;10050;55.492;13.506;2023-08-06T10:17:33;7.50;;;3.40;;
19780;SDS011;10050;55.492;13.506;2023-08-06T10:20:00;4.50;;;3.17;;
19780;SDS011;10050;55.492;13.506;2023-08-06T10:22:25;7.53;;;3.30;;
19780;SDS011;10050;55.492;13.506;2023-08-06T10:24:59;4.47;;;3.00;;
19780;SDS011;10050;55.492;13.506;2023-08-06T10:32:57;5.00;;;3.33;;
19780;SDS011;10050;55.492;13.506;2023-08-06T10:35:31;3.00;;;2.80;;
19780;SDS011;10050;55.492;13.506;2023-08-06T10:38:04;6.93;;;3.50;;
19780;SDS011;10050;55.492;13.506;2023-08-06T10:40:32;3.83;;;2.80;;
19780;SDS011;10050;55.492;13.506;2023-08-06T10:42:59;4.40;;;3.37;;
19780;SDS011;10050;55.492;13.506;2023-08-06T10:45:26;5.67;;;3.30;;
19780;SDS011;10050;55.492;13.506;2023-08-06T10:47:54;4.07;;;3.17;;
19780;SDS011;10050;55.492;13.506;2023-08-06T10:50:21;4.97;;;3.83;;
19780;SDS011;10050;55.492;13.506;2023-08-06T10:52:47;4.33;;;2.77;;
19780;SDS011;10050;55.492;13.506;2023-08-06T10:55:28;4.70;;;3.00;;
19780;SDS011;10050;55.492;13.506;2023-08-06T10:57:54;6.87;;;3.70;;
19780;SDS011;10050;55.492;13.506;2023-08-06T11:00:24;6.33;;;3.43;;
19780;SDS011;10050;55.492;13.506;2023-08-06T11:02:51;4.23;;;3.10;;
19780;SDS011;10050;55.492;13.506;2023-08-06T11:05:17;5.43;;;3.60;;
19780;SDS011;10050;55.492;13.506;2023-08-06T11:07:43;5.10;;;3.80;;
19780;SDS011;10050;55.492;13.506;2023-08-06T11:10:10;8.17;;;3.77;;
19780;SDS011;10050;55.492;13.506;2023-08-06T11:12:37;7.63;;;3.87;;
19780;SDS011;10050;55.492;13.506;2023-08-06T11:15:03;4.90;;;3.43;;
19780;SDS011;10050;55.492;13.506;2023-08-06T11:17:31;5.07;;;3.87;;
19780;SDS011;10050;55.492;13.506;2023-08-06T11:20:01;3.23;;;2.93;;
19780;SDS011;10050;55.492;13.506;2023-08-06T11:22:29;5.87;;;3.50;;
19780;SDS011;10050;55.492;13.506;2023-08-06T11:24:54;4.50;;;3.27;;
19780;SDS011;10050;55.492;13.506;2023-08-06T11:27:20;7.90;;;3.30;;
19780;SDS011;10050;55.492;13.506;2023-08-06T11:29:46;7.67;;;4.07;;
19780;SDS011;10050;55.492;13.506;2023-08-06T11:32:12;4.20;;;3.10;;
19780;SDS011;10050;55.492;13.506;2023-08-06T11:34:38;5.20;;;3.70;;
19780;SDS011;10050;55.492;13.506;2023-08-06T11:37:04;4.13;;;3.83;;
19780;SDS011;10050;55.492;13.506;2023-08-06T11:39:35;5.73;;;3.90;;
19780;SDS011;10050;55.492;13.506;2023-08-06T11:42:07;3.63;;;3.33;;
19780;SDS011;10050;55.492;13.506;2023-08-06T11:44:36;4.90;;;3.80;;
19780;SDS011;10050;55.492;13.506;2023-08-06T11:47:03;4.37;;;3.60;;
19780;SDS011;10050;55.492;13.506;2023-08-06T11:49:46;7.07;;;3.70;;
19780;SDS011;10050;55.492;13.506;2023-08-06T11:54:46;5.97;;;3.53;;
19780;SDS011;10050;55.492;13.506;2023-08-06T11:57:13;3.53;;;3.23;;
19780;SDS011;10050;55.492;13.506;2023-08-06T11:59:42;4.77;;;3.30;;
19780;SDS011;10050;55.492;13.506;2023-08-06T12:02:08;4.23;;;3.37;;
19780;SDS011;10050;55.492;13.506;2023-08-06T12:05:01;3.93;;;3.50;;
19780;SDS011;10050;55.492;13.506;2023-08-06T12:07:48;4.90;;;2.67;;
19780;SDS011;10050;55.492;13.506;2023-08-06T12:10:24;5.40;;;2.70;;
19780;SDS011;10050;55.492;13.506;2023-08-06T12:13:01;6.37;;;3.60;;
19780;SDS011;10050;55.492;13.506;2023-08-06T12:15:28;12.57;;;9.37;;
19780;SDS011;10050;55.492;13.506;2023-08-06T12:17:53;13.97;;;8.50;;
19780;SDS011;10050;55.492;13.506;2023-08-06T12:20:19;9.37;;;5.50;;
19780;SDS011;10050;55.492;13.506;2023-08-06T12:22:45;15.30;;;9.73;;
19780;SDS011;10050;55.492;13.506;2023-08-06T12:25:11;8.60;;;5.87;;
19780;SDS011;10050;55.492;13.506;2023-08-06T12:27:38;9.27;;;5.13;;
19780;SDS011;10050;55.492;13.506;2023-08-06T12:30:04;9.37;;;5.53;;
19780;SDS011;10050;55.492;13.506;2023-08-06T12:32:31;5.10;;;3.83;;
19780;SDS011;10050;55.492;13.506;2023-08-06T12:34:57;15.23;;;8.13;;
19780;SDS011;10050;55.492;13.506;2023-08-06T12:37:24;13.90;;;7.63;;
19780;SDS011;10050;55.492;13.506;2023-08-06T12:39:51;15.80;;;8.40;;
19780;SDS011;10050;55.492;13.506;2023-08-06T12:42:16;19.90;;;11.80;;
19780;SDS011;10050;55.492;13.506;2023-08-06T12:44:42;12.77;;;8.80;;
19780;SDS011;10050;55.492;13.506;2023-08-06T12:47:08;17.63;;;12.67;;
19780;SDS011;10050;55.492;13.506;2023-08-06T12:49:33;17.77;;;12.57;;
19780;SDS011;10050;55.492;13.506;2023-08-06T12:51:59;30.40;;;27.60;;
19780;SDS011;10050;55.492;13.506;2023-08-06T12:54:25;12.43;;;11.17;;
19780;SDS011;10050;55.492;13.506;2023-08-06T12:56:52;10.97;;;9.93;;
19780;SDS011;10050;55.492;13.506;2023-08-06T12:59:18;6.67;;;4.80;;
19780;SDS011;10050;55.492;13.506;2023-08-06T13:01:44;5.80;;;5.30;;
19780;SDS011;10050;55.492;13.506;2023-08-06T13:04:10;9.37;;;8.67;;
19780;SDS011;10050;55.492;13.506;2023-08-06T13:06:37;6.00;;;5.57;;
19780;SDS011;10050;55.492;13.506;2023-08-06T13:09:05;4.17;;;3.87;;
19780;SDS011;10050;55.492;13.506;2023-08-06T13:11:37;3.97;;;3.13;;
19780;SDS011;10050;55.492;13.506;2023-08-06T13:14:08;4.33;;;3.87;;
19780;SDS011;10050;55.492;13.506;2023-08-06T13:16:39;5.43;;;3.97;;
19780;SDS011;10050;55.492;13.506;2023-08-06T13:19:06;2.80;;;2.60;;
19780;SDS011;10050;55.492;13.506;2023-08-06T13:21:35;2.87;;;2.67;;
19780;SDS011;10050;55.492;13.506;2023-08-06T13:24:21;3.70;;;2.93;;
19780;SDS011;10050;55.492;13.506;2023-08-06T13:26:46;3.03;;;2.70;;
19780;SDS011;10050;55.492;13.506;2023-08-06T13:29:12;2.67;;;2.43;;
19780;SDS011;10050;55.492;13.506;2023-08-06T13:31:38;2.60;;;2.40;;
19780;SDS011;10050;55.492;13.506;2023-08-06T13:34:03;3.13;;;2.83;;
19780;SDS011;10050;55.492;13.506;2023-08-06T13:36:29;3.53;;;2.80;;
19780;SDS011;10050;55.492;13.506;2023-08-06T13:38:56;5.20;;;2.43;;
19780;SDS011;10050;55.492;13.506;2023-08-06T13:41:21;2.53;;;2.37;;
19780;SDS011;10050;55.492;13.506;2023-08-06T13:43:47;3.20;;;2.30;;
19780;SDS011;10050;55.492;13.506;2023-08-06T13:46:14;2.97;;;2.30;;
19780;SDS011;10050;55.492;13.506;2023-08-06T13:48:44;3.53;;;2.20;;
19780;SDS011;10050;55.492;13.506;2023-08-06T13:51:11;3.70;;;2.40;;
19780;SDS011;10050;55.492;13.506;2023-08-06T13:53:37;4.73;;;2.57;;
19780;SDS011;10050;55.492;13.506;2023-08-06T13:56:04;2.70;;;2.50;;
19780;SDS011;10050;55.492;13.506;2023-08-06T13:58:31;4.23;;;2.87;;
19780;SDS011;10050;55.492;13.506;2023-08-06T14:00:56;2.67;;;2.23;;
19780;SDS011;10050;55.492;13.506;2023-08-06T14:03:22;4.37;;;3.97;;
19780;SDS011;10050;55.492;13.506;2023-08-06T14:05:48;2.53;;;2.33;;
19780;SDS011;10050;55.492;13.506;2023-08-06T14:08:15;3.60;;;2.53;;
19780;SDS011;10050;55.492;13.506;2023-08-06T14:10:43;2.63;;;2.43;;
19780;SDS011;10050;55.492;13.506;2023-08-06T14:13:09;2.80;;;2.50;;
19780;SDS011;10050;55.492;13.506;2023-08-06T14:15:35;2.70;;;2.50;;
19780;SDS011;10050;55.492;13.506;2023-08-06T14:18:01;3.87;;;2.70;;
19780;SDS011;10050;55.492;13.506;2023-08-06T14:20:27;2.50;;;2.30;;
19780;SDS011;10050;55.492;13.506;2023-08-06T14:22:53;3.50;;;2.13;;
19780;SDS011;10050;55.492;13.506;2023-08-06T14:25:19;2.33;;;2.13;;
19780;SDS011;10050;55.492;13.506;2023-08-06T14:27:44;4.30;;;3.90;;
19780;SDS011;10050;55.492;13.506;2023-08-06T14:30:11;3.77;;;2.50;;
19780;SDS011;10050;55.492;13.506;2023-08-06T14:32:36;2.40;;;2.20;;
19780;SDS011;10050;55.492;13.506;2023-08-06T14:35:02;3.43;;;2.30;;
19780;SDS011;10050;55.492;13.506;2023-08-06T14:37:28;3.20;;;2.63;;
19780;SDS011;10050;55.492;13.506;2023-08-06T14:39:53;3.90;;;2.43;;
19780;SDS011;10050;55.492;13.506;2023-08-06T14:42:19;3.47;;;2.33;;
19780;SDS011;10050;55.492;13.506;2023-08-06T14:44:45;4.83;;;2.40;;
19780;SDS011;10050;55.492;13.506;2023-08-06T14:47:10;3.33;;;2.90;;
19780;SDS011;10050;55.492;13.506;2023-08-06T14:49:37;2.50;;;2.30;;